createdAt,value
2022-12-11T00:00:50.491Z,-1.50
2022-12-11T00:03:18.373Z,-1.50
2022-12-11T00:05:45.882Z,-1.40
2022-12-11T00:08:13.164Z,-1.40
2022-12-11T00:10:40.003Z,-1.40
2022-12-11T00:13:06.821Z,-1.40
2022-12-11T00:15:33.557Z,-1.40
2022-12-11T00:18:00.285Z,-1.30
2022-12-11T00:20:27.182Z,-1.10
2022-12-11T00:22:53.895Z,-1.30
2022-12-11T00:25:20.623Z,-1.20
2022-12-11T00:27:47.497Z,-1.20
2022-12-11T00:30:14.746Z,-1.20
2022-12-11T00:32:41.680Z,-1.10
2022-12-11T00:35:09.235Z,-1.10
2022-12-11T00:37:36.174Z,-1.10
2022-12-11T00:40:03.040Z,-1.10
2022-12-11T00:42:29.814Z,-1.10
2022-12-11T00:44:56.602Z,-1.00
2022-12-11T00:47:23.457Z,-1.10
2022-12-11T00:49:50.412Z,-1.00
2022-12-11T00:52:18.037Z,-1.00
2022-12-11T00:54:45.123Z,-1.10
2022-12-11T00:57:11.937Z,-1.10
2022-12-11T00:59:38.979Z,-1.10
2022-12-11T01:02:05.811Z,-1.10
2022-12-11T01:04:35.032Z,-1.20
2022-12-11T01:07:01.843Z,-1.30
2022-12-11T01:09:47.344Z,-1.30
2022-12-11T01:12:14.088Z,-1.40
2022-12-11T01:14:40.784Z,-1.50
2022-12-11T01:17:07.562Z,-1.50
2022-12-11T01:19:34.275Z,-1.60
2022-12-11T01:22:00.973Z,-1.70
2022-12-11T01:24:27.686Z,-1.80
2022-12-11T01:26:54.398Z,-1.80
2022-12-11T01:29:21.189Z,-1.80
2022-12-11T01:31:48.963Z,-1.80
2022-12-11T01:34:15.681Z,-1.80
2022-12-11T01:36:42.427Z,-1.80
2022-12-11T01:39:09.142Z,-1.80
2022-12-11T01:41:35.928Z,-1.80
2022-12-11T01:44:15.913Z,-1.70
2022-12-11T01:46:43.200Z,-1.70
2022-12-11T01:49:12.969Z,-1.60
2022-12-11T01:51:51.719Z,-1.60
2022-12-11T01:54:21.341Z,-1.60
2022-12-11T01:56:51.652Z,-1.60
2022-12-11T01:59:23.096Z,-1.20
2022-12-11T02:02:03.173Z,-1.70
2022-12-11T02:04:30.839Z,-1.80
2022-12-11T02:06:57.861Z,-1.80
2022-12-11T02:09:31.554Z,-1.90
2022-12-11T02:12:06.853Z,-2.00
2022-12-11T02:14:46.908Z,-2.00
2022-12-11T02:17:22.204Z,-1.90
2022-12-11T02:19:48.834Z,-1.90
2022-12-11T02:22:32.834Z,-1.80
2022-12-11T02:24:59.457Z,-1.80
2022-12-11T02:27:35.140Z,-1.80
2022-12-11T02:30:10.021Z,-1.80
2022-12-11T02:32:47.372Z,-1.80
2022-12-11T02:35:32.543Z,-1.80
2022-12-11T02:38:05.539Z,-1.80
2022-12-11T02:40:36.813Z,-1.80
2022-12-11T02:43:07.099Z,-1.70
2022-12-11T02:45:35.373Z,-1.70
2022-12-11T02:48:05.863Z,-1.70
2022-12-11T02:50:35.356Z,-1.60
2022-12-11T02:53:04.247Z,-1.70
2022-12-11T02:55:33.714Z,-1.60
2022-12-11T02:58:13.270Z,-1.70
2022-12-11T03:00:40.331Z,-1.70
2022-12-11T03:03:07.264Z,-1.70
2022-12-11T03:05:34.036Z,-1.80
2022-12-11T03:08:02.288Z,-1.90
2022-12-11T03:10:29.040Z,-2.00
2022-12-11T03:12:58.007Z,-2.00
2022-12-11T03:15:34.808Z,-2.10
2022-12-11T03:18:13.177Z,-2.20
2022-12-11T03:20:54.546Z,-2.10
2022-12-11T03:23:35.032Z,-2.10
2022-12-11T03:26:05.947Z,-2.00
2022-12-11T03:28:44.559Z,-1.90
2022-12-11T03:31:28.829Z,-1.90
2022-12-11T03:34:00.945Z,-1.90
2022-12-11T03:36:34.154Z,-1.80
2022-12-11T03:39:18.780Z,-1.90
2022-12-11T03:41:48.566Z,-1.90
2022-12-11T03:44:16.998Z,-1.90
2022-12-11T03:46:45.478Z,-1.90
2022-12-11T03:49:24.322Z,-1.90
2022-12-11T03:51:53.657Z,-1.80
2022-12-11T03:54:22.145Z,-1.90
2022-12-11T03:56:51.222Z,-1.90
2022-12-11T03:59:18.076Z,-1.90
2022-12-11T04:01:44.991Z,-2.00
2022-12-11T04:04:11.806Z,-2.00
2022-12-11T04:06:38.476Z,-2.00
2022-12-11T04:09:05.236Z,-2.00
2022-12-11T04:11:34.883Z,-2.00
2022-12-11T04:14:25.623Z,-2.00
2022-12-11T04:16:53.210Z,-2.00
2022-12-11T04:19:39.173Z,-2.00
2022-12-11T04:22:24.580Z,-2.00
2022-12-11T04:24:51.417Z,-2.00
2022-12-11T04:27:39.369Z,-1.90
2022-12-11T04:30:10.871Z,-1.90
2022-12-11T04:32:37.791Z,-1.80
2022-12-11T04:35:06.443Z,-1.80
2022-12-11T04:37:33.236Z,-1.80
2022-12-11T04:39:59.905Z,-1.70
2022-12-11T04:42:26.776Z,-1.70
2022-12-11T04:44:53.452Z,-1.70
2022-12-11T04:47:20.116Z,-1.70
2022-12-11T04:49:46.892Z,-1.60
2022-12-11T04:52:13.590Z,-1.60
2022-12-11T04:54:40.292Z,-1.60
2022-12-11T04:57:06.977Z,-1.60
2022-12-11T04:59:33.995Z,-1.50
2022-12-11T05:02:00.829Z,-1.50
2022-12-11T05:04:32.220Z,-1.50
2022-12-11T05:06:59.365Z,-1.50
2022-12-11T05:09:27.091Z,-1.50
2022-12-11T05:11:54.582Z,-1.60
2022-12-11T05:14:21.914Z,-1.50
2022-12-11T05:16:48.624Z,-1.60
2022-12-11T05:19:15.538Z,-1.60
2022-12-11T05:21:42.371Z,-1.60
2022-12-11T05:24:09.236Z,-1.70
2022-12-11T05:26:36.015Z,-1.80
2022-12-11T05:29:02.832Z,-2.00
2022-12-11T05:31:29.588Z,-2.10
2022-12-11T05:33:56.462Z,-2.20
2022-12-11T05:36:25.799Z,-2.30
2022-12-11T05:38:53.708Z,-2.40
2022-12-11T05:41:23.643Z,-2.60
2022-12-11T05:43:50.712Z,-2.70
2022-12-11T05:46:23.086Z,-2.80
2022-12-11T05:48:52.764Z,-2.90
2022-12-11T05:51:19.751Z,-3.00
2022-12-11T05:53:48.418Z,-3.00
2022-12-11T05:56:18.264Z,-3.10
2022-12-11T05:58:46.104Z,-3.20
2022-12-11T06:01:18.871Z,-3.20
2022-12-11T06:03:45.765Z,-3.20
2022-12-11T06:06:13.134Z,-3.30
2022-12-11T06:08:39.946Z,-3.40
2022-12-11T06:11:07.154Z,-3.40
2022-12-11T06:13:34.620Z,-3.50
2022-12-11T06:16:03.148Z,-3.50
2022-12-11T06:18:30.123Z,-3.60
2022-12-11T06:20:57.103Z,-3.60
2022-12-11T06:23:24.152Z,-3.60
2022-12-11T06:25:50.951Z,-3.60
2022-12-11T06:28:17.704Z,-3.70
2022-12-11T06:30:44.986Z,-3.80
2022-12-11T06:33:11.814Z,-3.90
2022-12-11T06:35:41.929Z,-3.80
2022-12-11T06:38:10.894Z,-3.70
2022-12-11T06:40:38.197Z,-3.70
2022-12-11T06:43:04.908Z,-3.60
2022-12-11T06:45:31.631Z,-3.60
2022-12-11T06:47:58.805Z,-3.50
2022-12-11T06:50:25.593Z,-3.40
2022-12-11T06:52:52.605Z,-3.30
2022-12-11T06:55:19.349Z,-3.30
2022-12-11T06:57:46.615Z,-3.20
2022-12-11T07:00:14.118Z,-3.20
2022-12-11T07:02:40.921Z,-3.10
2022-12-11T07:05:08.087Z,-3.10
2022-12-11T07:07:34.900Z,-3.00
2022-12-11T07:10:07.717Z,-2.90
2022-12-11T07:12:35.440Z,-2.90
2022-12-11T07:15:02.139Z,-2.90
2022-12-11T07:17:29.321Z,-2.90
2022-12-11T07:19:56.135Z,-2.90
2022-12-11T07:22:23.139Z,-2.80
2022-12-11T07:24:49.893Z,-2.80
2022-12-11T07:27:16.587Z,-2.70
2022-12-11T07:29:43.397Z,-2.60
2022-12-11T07:32:10.761Z,-2.60
2022-12-11T07:34:38.067Z,-2.50
2022-12-11T07:37:05.268Z,-2.40
2022-12-11T07:39:32.098Z,-2.20
2022-12-11T07:41:58.897Z,-2.20
2022-12-11T07:44:25.756Z,-2.00
2022-12-11T07:46:52.436Z,-2.00
2022-12-11T07:49:19.128Z,-1.90
2022-12-11T07:51:45.865Z,-1.90
2022-12-11T07:54:16.448Z,-1.90
2022-12-11T07:56:51.146Z,-1.80
2022-12-11T07:59:21.210Z,-1.90
2022-12-11T08:01:48.046Z,-1.90
2022-12-11T08:04:15.840Z,-1.80
2022-12-11T08:06:43.209Z,-1.80
2022-12-11T08:09:17.496Z,-1.70
2022-12-11T08:11:50.459Z,-1.60
2022-12-11T08:14:17.879Z,-1.50
2022-12-11T08:16:44.787Z,-1.50
2022-12-11T08:19:12.739Z,-1.40
2022-12-11T08:21:40.359Z,-1.30
2022-12-11T08:24:07.831Z,-1.30
2022-12-11T08:26:34.577Z,-1.20
2022-12-11T08:29:02.573Z,-1.20
2022-12-11T08:31:29.618Z,-1.10
2022-12-11T08:33:57.637Z,-1.00
2022-12-11T08:36:25.485Z,-1.10
2022-12-11T08:38:53.981Z,-1.00
2022-12-11T08:41:29.215Z,-1.00
2022-12-11T08:43:57.633Z,-1.00
2022-12-11T08:46:27.435Z,-1.00
2022-12-11T08:48:55.531Z,-0.90
2022-12-11T08:51:24.695Z,-0.80
2022-12-11T08:53:54.086Z,-0.60
2022-12-11T08:56:21.691Z,-0.50
2022-12-11T08:58:48.420Z,-0.40
2022-12-11T09:01:21.779Z,-0.30
2022-12-11T09:03:49.855Z,0.00
2022-12-11T09:06:18.942Z,0.70
2022-12-11T09:08:52.222Z,1.60
2022-12-11T09:11:22.454Z,2.10
2022-12-11T09:13:49.566Z,2.50
2022-12-11T09:16:19.266Z,3.50
2022-12-11T09:18:48.319Z,3.90
2022-12-11T09:21:17.456Z,3.70
2022-12-11T09:23:44.833Z,3.30
2022-12-11T09:26:15.479Z,2.80
2022-12-11T09:28:46.296Z,2.20
2022-12-11T09:31:27.743Z,1.90
2022-12-11T09:33:57.127Z,1.40
2022-12-11T09:36:24.170Z,1.10
2022-12-11T09:38:51.419Z,0.90
2022-12-11T09:41:34.435Z,0.70
2022-12-11T09:44:07.903Z,0.70
2022-12-11T09:46:36.659Z,0.60
2022-12-11T09:49:05.213Z,0.50
2022-12-11T09:51:42.416Z,0.40
2022-12-11T09:54:13.340Z,0.40
2022-12-11T09:56:47.690Z,0.40
2022-12-11T09:59:32.908Z,0.40
2022-12-11T10:02:30.066Z,0.30
2022-12-11T10:05:21.537Z,0.20
2022-12-11T10:07:51.437Z,0.10
2022-12-11T10:10:34.593Z,0.00
2022-12-11T10:13:04.081Z,-0.10
2022-12-11T10:15:37.136Z,-0.20
2022-12-11T10:18:09.917Z,-0.20
2022-12-11T10:20:40.233Z,-0.30
2022-12-11T10:23:09.925Z,-0.40
2022-12-11T10:25:41.868Z,-0.40
2022-12-11T10:28:16.861Z,-0.40
2022-12-11T10:31:12.983Z,-0.40
2022-12-11T10:33:48.634Z,-0.40
2022-12-11T10:36:20.668Z,-0.40
2022-12-11T10:38:47.608Z,-0.40
2022-12-11T10:41:18.360Z,-0.40
2022-12-11T10:43:48.856Z,-0.20
2022-12-11T10:46:21.694Z,-0.10
2022-12-11T10:48:56.445Z,0.00
2022-12-11T10:51:26.617Z,0.00
2022-12-11T10:53:55.781Z,0.00
2022-12-11T10:56:28.615Z,-0.10
2022-12-11T10:58:57.652Z,-0.20
2022-12-11T11:01:27.760Z,-0.20
2022-12-11T11:04:16.355Z,-0.30
2022-12-11T11:06:43.117Z,-0.30
2022-12-11T11:09:32.195Z,-0.30
2022-12-11T11:12:01.910Z,-0.40
2022-12-11T11:14:32.738Z,-0.30
2022-12-11T11:17:01.630Z,-0.20
2022-12-11T11:19:34.806Z,0.20
2022-12-11T11:22:14.985Z,0.90
2022-12-11T11:24:55.974Z,1.60
2022-12-11T11:27:37.061Z,2.30
2022-12-11T11:30:08.435Z,2.70
2022-12-11T11:32:38.973Z,3.00
2022-12-11T11:35:12.056Z,3.00
2022-12-11T11:37:41.505Z,3.10
2022-12-11T11:40:28.033Z,3.10
2022-12-11T11:43:21.111Z,3.00
2022-12-11T11:46:14.859Z,2.80
2022-12-11T11:48:57.391Z,2.30
2022-12-11T11:52:11.066Z,1.80
2022-12-11T11:54:51.342Z,1.50
2022-12-11T11:57:42.462Z,1.20
2022-12-11T12:00:31.946Z,0.90
2022-12-11T12:03:19.808Z,0.80
2022-12-11T12:06:06.454Z,0.90
2022-12-11T12:09:12.987Z,1.60
2022-12-11T12:12:27.431Z,2.00
2022-12-11T12:15:01.662Z,2.20
2022-12-11T12:17:55.120Z,2.30
2022-12-11T12:20:53.800Z,2.40
2022-12-11T12:23:26.144Z,2.60
2022-12-11T12:25:57.868Z,2.90
2022-12-11T12:28:41.645Z,3.10
2022-12-11T12:31:08.485Z,3.20
2022-12-11T12:34:10.133Z,3.10
2022-12-11T12:36:51.444Z,3.00
2022-12-11T12:39:30.158Z,2.90
2022-12-11T12:42:09.079Z,2.80
2022-12-11T12:44:55.651Z,2.80
2022-12-11T12:47:22.958Z,2.40
2022-12-11T12:49:53.237Z,2.10
2022-12-11T12:52:33.187Z,1.80
2022-12-11T12:55:14.702Z,1.50
2022-12-11T12:58:32.719Z,1.20
2022-12-11T13:01:16.859Z,0.90
2022-12-11T13:03:58.537Z,0.80
2022-12-11T13:06:38.706Z,0.70
2022-12-11T13:09:28.191Z,0.70
2022-12-11T13:11:58.035Z,0.70
2022-12-11T13:14:31.840Z,0.70
2022-12-11T13:17:21.116Z,0.70
2022-12-11T13:19:50.058Z,0.70
2022-12-11T13:22:16.748Z,0.80
2022-12-11T13:25:19.330Z,0.80
2022-12-11T13:27:46.038Z,0.80
2022-12-11T13:30:15.553Z,0.70
2022-12-11T13:33:07.632Z,0.80
2022-12-11T13:35:35.419Z,0.70
2022-12-11T13:38:15.537Z,0.70
2022-12-11T13:40:44.625Z,0.60
2022-12-11T13:43:25.788Z,0.50
2022-12-11T13:45:57.290Z,0.50
2022-12-11T13:48:33.617Z,0.40
2022-12-11T13:51:01.629Z,0.30
2022-12-11T13:53:29.059Z,0.20
2022-12-11T13:56:04.311Z,0.10
2022-12-11T13:58:35.166Z,0.10
2022-12-11T14:01:05.173Z,0.00
2022-12-11T14:03:33.035Z,-0.10
2022-12-11T14:06:02.751Z,-0.10
2022-12-11T14:08:37.203Z,-0.20
2022-12-11T14:11:05.106Z,-0.30
2022-12-11T14:13:39.634Z,-0.30
2022-12-11T14:16:07.068Z,-0.40
2022-12-11T14:18:36.648Z,-0.50
2022-12-11T14:21:06.038Z,-0.50
2022-12-11T14:23:37.471Z,-0.50
2022-12-11T14:26:21.682Z,-0.50
2022-12-11T14:28:48.793Z,-0.50
2022-12-11T14:31:37.244Z,-0.50
2022-12-11T14:34:44.558Z,-0.50
2022-12-11T14:37:15.806Z,-0.50
2022-12-11T14:39:57.194Z,-0.50
2022-12-11T14:42:33.801Z,-0.50
2022-12-11T14:45:13.546Z,-0.50
2022-12-11T14:47:44.835Z,-0.60
2022-12-11T14:50:17.778Z,-0.60
2022-12-11T14:52:58.797Z,-0.60
2022-12-11T14:55:29.431Z,-0.60
2022-12-11T14:58:04.136Z,-0.70
2022-12-11T15:00:36.005Z,-0.70
2022-12-11T15:03:05.199Z,-0.80
2022-12-11T15:05:40.405Z,-0.80
2022-12-11T15:08:10.511Z,-0.90
2022-12-11T15:10:42.176Z,-1.00
2022-12-11T15:13:09.793Z,-1.00
2022-12-11T15:15:47.049Z,-1.10
2022-12-11T15:18:41.531Z,-1.10
2022-12-11T15:21:11.374Z,-1.10
2022-12-11T15:23:49.874Z,-1.10
2022-12-11T15:26:16.986Z,-1.10
2022-12-11T15:28:43.869Z,-1.10
2022-12-11T15:31:28.700Z,-1.10
2022-12-11T15:33:55.838Z,-1.20
2022-12-11T15:36:33.180Z,-1.20
2022-12-11T15:39:00.211Z,-1.20
2022-12-11T15:41:28.503Z,-1.20
2022-12-11T15:43:59.115Z,-1.20
2022-12-11T15:46:26.427Z,-1.10
2022-12-11T15:48:53.514Z,-1.10
2022-12-11T15:51:20.283Z,-1.20
2022-12-11T15:53:47.051Z,-1.20
2022-12-11T15:56:15.573Z,-1.10
2022-12-11T15:58:44.821Z,-1.10
2022-12-11T16:01:11.743Z,-1.10
2022-12-11T16:03:38.546Z,-1.10
2022-12-11T16:06:05.588Z,-1.10
2022-12-11T16:08:32.449Z,-1.10
2022-12-11T16:10:59.300Z,-1.10
2022-12-11T16:13:26.094Z,-1.10
2022-12-11T16:15:54.282Z,-1.20
2022-12-11T16:18:23.528Z,-1.10
2022-12-11T16:20:51.253Z,-1.10
2022-12-11T16:23:18.570Z,-1.10
2022-12-11T16:25:46.459Z,-1.20
2022-12-11T16:28:15.728Z,-1.10
2022-12-11T16:30:43.545Z,-1.20
2022-12-11T16:33:13.106Z,-1.10
2022-12-11T16:35:41.684Z,-1.20
2022-12-11T16:38:10.032Z,-1.20
2022-12-11T16:40:37.411Z,-1.20
2022-12-11T16:43:05.293Z,-1.20
2022-12-11T16:45:32.900Z,-1.20
2022-12-11T16:48:03.142Z,-1.20
2022-12-11T16:50:29.998Z,-1.20
2022-12-11T16:52:57.265Z,-1.20
2022-12-11T16:55:24.141Z,-1.10
2022-12-11T16:57:50.933Z,-1.20
2022-12-11T17:00:17.922Z,-1.20
2022-12-11T17:02:44.675Z,-1.20
2022-12-11T17:05:11.837Z,-1.20
2022-12-11T17:07:38.922Z,-1.20
2022-12-11T17:10:06.171Z,-1.20
2022-12-11T17:12:32.914Z,-1.20
2022-12-11T17:14:59.961Z,-1.20
2022-12-11T17:17:26.740Z,-1.20
2022-12-11T17:19:53.565Z,-1.20
2022-12-11T17:22:20.749Z,-1.30
2022-12-11T17:24:47.740Z,-1.30
2022-12-11T17:27:14.484Z,-1.30
2022-12-11T17:29:41.238Z,-1.20
2022-12-11T17:32:07.948Z,-1.20
2022-12-11T17:34:38.138Z,-1.20
2022-12-11T17:37:05.679Z,-1.20
2022-12-11T17:39:33.071Z,-1.20
2022-12-11T17:41:59.767Z,-1.20
2022-12-11T17:44:26.874Z,-1.10
2022-12-11T17:46:53.961Z,-1.10
2022-12-11T17:49:20.667Z,-1.10
2022-12-11T17:51:48.029Z,-1.10
2022-12-11T17:54:14.921Z,-1.10
2022-12-11T17:56:41.835Z,-1.10
2022-12-11T17:59:08.714Z,-1.20
2022-12-11T18:01:35.764Z,-1.20
2022-12-11T18:04:02.733Z,-1.20
2022-12-11T18:06:30.018Z,-1.20
2022-12-11T18:08:57.320Z,-1.20
2022-12-11T18:11:25.157Z,-1.20
2022-12-11T18:13:53.245Z,-1.30
2022-12-11T18:16:30.155Z,-1.30
2022-12-11T18:18:57.125Z,-1.30
2022-12-11T18:21:29.919Z,-1.30
2022-12-11T18:23:57.562Z,-1.30
2022-12-11T18:26:24.754Z,-1.30
2022-12-11T18:28:52.918Z,-1.30
2022-12-11T18:31:21.159Z,-1.30
2022-12-11T18:33:48.068Z,-1.30
2022-12-11T18:36:16.815Z,-1.30
2022-12-11T18:38:43.916Z,-1.30
2022-12-11T18:41:13.122Z,-1.30
2022-12-11T18:43:40.771Z,-1.20
2022-12-11T18:46:14.340Z,-1.30
2022-12-11T18:48:42.497Z,-1.30
2022-12-11T18:51:11.373Z,-1.30
2022-12-11T18:53:39.590Z,-1.30
2022-12-11T18:56:12.739Z,-1.30
2022-12-11T18:58:39.719Z,-1.40
2022-12-11T19:01:27.153Z,-1.40
2022-12-11T19:04:03.211Z,-1.40
2022-12-11T19:06:33.263Z,-1.40
2022-12-11T19:09:00.443Z,-1.20
2022-12-11T19:11:29.773Z,-1.40
2022-12-11T19:13:57.109Z,-1.40
2022-12-11T19:16:32.533Z,-1.40
2022-12-11T19:19:01.347Z,-1.40
2022-12-11T19:21:28.071Z,-1.40
2022-12-11T19:23:54.978Z,-1.40
2022-12-11T19:26:23.675Z,-1.40
2022-12-11T19:28:52.653Z,-1.40
2022-12-11T19:31:22.434Z,-1.40
2022-12-11T19:33:50.012Z,-1.40
2022-12-11T19:36:19.678Z,-1.40
2022-12-11T19:38:46.652Z,-1.40
2022-12-11T19:41:27.489Z,-1.40
2022-12-11T19:43:55.991Z,-1.40
2022-12-11T19:46:23.474Z,-1.40
2022-12-11T19:48:52.290Z,-1.50
2022-12-11T19:51:21.947Z,-1.50
2022-12-11T19:53:49.427Z,-1.50
2022-12-11T19:56:17.980Z,-1.40
2022-12-11T19:58:44.985Z,-1.40
2022-12-11T20:01:25.899Z,-1.50
2022-12-11T20:03:53.283Z,-1.50
2022-12-11T20:06:20.552Z,-1.50
2022-12-11T20:08:47.648Z,-1.50
2022-12-11T20:11:18.788Z,-1.50
2022-12-11T20:13:47.072Z,-1.60
2022-12-11T20:16:15.465Z,-1.60
2022-12-11T20:18:42.422Z,-1.60
2022-12-11T20:21:12.403Z,-1.60
2022-12-11T20:23:39.407Z,-1.60
2022-12-11T20:26:11.569Z,-1.60
2022-12-11T20:28:38.516Z,-1.60
2022-12-11T20:31:16.441Z,-1.60
2022-12-11T20:33:47.023Z,-1.60
2022-12-11T20:36:15.967Z,-1.50
2022-12-11T20:38:43.288Z,-1.50
2022-12-11T20:41:13.552Z,-1.50
2022-12-11T20:43:40.989Z,-1.50
2022-12-11T20:46:09.858Z,-1.50
2022-12-11T20:48:37.360Z,-1.50
2022-12-11T20:51:05.566Z,-1.40
2022-12-11T20:53:32.295Z,-1.40
2022-12-11T20:55:59.002Z,-1.40
2022-12-11T20:58:25.716Z,-1.40
2022-12-11T21:00:52.631Z,-1.40
2022-12-11T21:03:19.501Z,-1.30
2022-12-11T21:05:46.569Z,-1.30
2022-12-11T21:08:13.648Z,-1.40
2022-12-11T21:10:46.386Z,-1.40
2022-12-11T21:13:13.129Z,-1.40
2022-12-11T21:15:40.245Z,-1.40
2022-12-11T21:18:07.485Z,-1.40
2022-12-11T21:20:34.921Z,-1.40
2022-12-11T21:23:02.467Z,-1.50
2022-12-11T21:25:29.278Z,-1.40
2022-12-11T21:27:55.960Z,-1.40
2022-12-11T21:30:23.065Z,-1.50
2022-12-11T21:32:49.768Z,-1.40
2022-12-11T21:35:16.604Z,-1.50
2022-12-11T21:37:43.364Z,-1.50
2022-12-11T21:40:10.488Z,-1.50
2022-12-11T21:42:39.547Z,-1.50
2022-12-11T21:47:53.532Z,-1.50
2022-12-11T21:50:21.258Z,-1.50
2022-12-11T21:52:47.982Z,-1.50
2022-12-11T21:55:14.915Z,-1.50
2022-12-11T21:57:41.664Z,-1.50
2022-12-11T22:00:09.463Z,-1.60
2022-12-11T22:02:40.602Z,-1.60
2022-12-11T22:05:08.441Z,-1.60
2022-12-11T22:07:35.135Z,-1.60
2022-12-11T22:10:02.331Z,-1.60
2022-12-11T22:12:29.099Z,-1.60
2022-12-11T22:14:56.091Z,-1.60
2022-12-11T22:17:23.299Z,-1.60
2022-12-11T22:19:51.999Z,-1.60
2022-12-11T22:22:19.270Z,-1.60
2022-12-11T22:24:46.434Z,-1.60
2022-12-11T22:27:13.199Z,-1.60
2022-12-11T22:29:39.962Z,-1.60
2022-12-11T22:32:06.754Z,-1.60
2022-12-11T22:34:33.525Z,-1.60
2022-12-11T22:37:01.573Z,-1.60
2022-12-11T22:39:28.329Z,-1.60
2022-12-11T22:41:55.149Z,-1.60
2022-12-11T22:44:22.194Z,-1.60
2022-12-11T22:46:50.482Z,-1.60
2022-12-11T22:49:19.079Z,-1.60
2022-12-11T22:51:45.930Z,-1.60
2022-12-11T22:54:12.948Z,-1.60
2022-12-11T22:56:39.733Z,-1.70
2022-12-11T22:59:07.598Z,-1.70
2022-12-11T23:01:34.536Z,-1.60
2022-12-11T23:04:01.361Z,-1.70
2022-12-11T23:06:28.172Z,-1.70
2022-12-11T23:08:58.892Z,-1.70
2022-12-11T23:11:29.872Z,-1.60
2022-12-11T23:13:56.963Z,-1.60
2022-12-11T23:16:26.138Z,-1.60
2022-12-11T23:18:54.088Z,-1.60
2022-12-11T23:21:21.789Z,-1.60
2022-12-11T23:23:49.201Z,-1.60
2022-12-11T23:26:18.740Z,-1.60
2022-12-11T23:28:46.251Z,-1.60
2022-12-11T23:31:13.897Z,-1.60
2022-12-11T23:33:40.593Z,-1.60
2022-12-11T23:36:08.015Z,-1.60
2022-12-11T23:38:34.849Z,-1.70
2022-12-11T23:41:02.787Z,-1.70
2022-12-11T23:43:29.657Z,-1.60
2022-12-11T23:45:56.401Z,-1.60
2022-12-11T23:48:23.355Z,-1.60
2022-12-11T23:50:50.067Z,-1.60
2022-12-11T23:53:16.839Z,-1.70
2022-12-11T23:55:45.328Z,-1.70
2022-12-11T23:58:12.497Z,-1.70
